createdAt,value
2019-01-27T00:00:03.044Z,10.58
2019-01-27T00:01:03.696Z,9.77
2019-01-27T00:02:03.312Z,9.77
2019-01-27T00:03:03.082Z,8.75
2019-01-27T00:04:02.890Z,8.75
2019-01-27T00:05:03.237Z,10.2
2019-01-27T00:06:02.753Z,10.2
2019-01-27T00:07:02.687Z,10.86
2019-01-27T00:08:02.813Z,11.89
2019-01-27T00:09:03.495Z,11.88
2019-01-27T00:10:03.168Z,11.88
2019-01-27T00:11:02.993Z,14.54
2019-01-27T00:12:02.903Z,10.72
2019-01-27T00:13:03.126Z,9.56
2019-01-27T00:14:02.902Z,9.56
2019-01-27T00:15:03.399Z,10.18
2019-01-27T00:16:03.174Z,9.65
2019-01-27T00:17:02.952Z,10.96
2019-01-27T00:18:02.898Z,10.26
2019-01-27T00:19:03.248Z,11.01
2019-01-27T00:20:01.878Z,8.91
2019-01-27T00:21:03.122Z,9.73
2019-01-27T00:22:02.801Z,9.73
2019-01-27T00:23:03.097Z,10.11
2019-01-27T00:24:02.784Z,10.88
2019-01-27T00:25:03.450Z,11.67
2019-01-27T00:26:03.206Z,11.67
2019-01-27T00:27:03.037Z,11.64
2019-01-27T00:28:03.571Z,11.64
2019-01-27T00:29:03.247Z,11.15
2019-01-27T00:30:03.332Z,11.15
2019-01-27T00:31:02.914Z,10.97
2019-01-27T00:32:02.744Z,10.97
2019-01-27T00:33:03.518Z,10.59
2019-01-27T00:34:02.920Z,14.2
2019-01-27T00:35:02.887Z,10.92
2019-01-27T00:36:02.653Z,10.54
2019-01-27T00:37:02.703Z,11.42
2019-01-27T00:38:02.968Z,9.11
2019-01-27T00:39:02.778Z,10.25
2019-01-27T00:40:03.545Z,10.19
2019-01-27T00:41:03.114Z,9.81
2019-01-27T00:42:03.085Z,9.81
2019-01-27T00:43:01.818Z,8.82
2019-01-27T00:44:03.092Z,8.82
2019-01-27T00:45:03.711Z,10.71
2019-01-27T00:46:03.572Z,10.71
2019-01-27T00:47:03.103Z,9.86
2019-01-27T00:48:03.396Z,11.55
2019-01-27T00:49:02.200Z,10.95
2019-01-27T00:50:03.020Z,10.95
2019-01-27T00:51:02.786Z,10.23
2019-01-27T00:52:03.619Z,10.23
2019-01-27T00:53:03.585Z,11.4
2019-01-27T00:54:03.334Z,11.4
2019-01-27T00:55:03.643Z,11.73
2019-01-27T00:56:03.455Z,11.73
2019-01-27T00:57:03.382Z,12.31
2019-01-27T00:58:02.880Z,12.31
2019-01-27T00:59:02.960Z,12.09
2019-01-27T01:00:02.940Z,12.09
2019-01-27T01:01:02.868Z,11.45
2019-01-27T01:02:02.658Z,12.33
2019-01-27T01:03:02.751Z,9.7
2019-01-27T01:04:02.573Z,11.91
2019-01-27T01:05:02.983Z,10.38
2019-01-27T01:06:03.010Z,10.38
2019-01-27T01:07:02.942Z,11.43
2019-01-27T01:08:01.916Z,11.99
2019-01-27T01:09:03.736Z,12.25
2019-01-27T01:10:03.608Z,12.25
2019-01-27T01:11:03.436Z,11.08
2019-01-27T01:12:03.158Z,11.09
2019-01-27T01:13:02.682Z,10.55
2019-01-27T01:14:02.873Z,10.55
2019-01-27T01:15:03.621Z,11.18
2019-01-27T01:16:03.351Z,11.18
2019-01-27T01:17:03.147Z,11.46
2019-01-27T01:18:02.717Z,13.93
2019-01-27T01:19:02.759Z,11.26
2019-01-27T01:20:03.751Z,11.26
2019-01-27T01:21:02.853Z,9.59
2019-01-27T01:22:02.726Z,9.59
2019-01-27T01:23:03.157Z,11.32
2019-01-27T01:24:03.258Z,11.32
2019-01-27T01:25:02.927Z,11.27
2019-01-27T01:26:02.830Z,10.52
2019-01-27T01:27:02.755Z,8.89
2019-01-27T01:28:03.630Z,10.81
2019-01-27T01:29:03.572Z,11.52
2019-01-27T01:30:03.325Z,9.89
2019-01-27T01:31:02.160Z,11.91
2019-01-27T01:32:03.284Z,9.89
2019-01-27T01:33:03.613Z,9.89
2019-01-27T01:34:03.687Z,9.89
2019-01-27T01:35:03.290Z,10.38
2019-01-27T01:36:02.863Z,10.38
2019-01-27T01:37:03.253Z,9.44
2019-01-27T01:38:02.934Z,9.44
2019-01-27T01:39:03.681Z,11.85
2019-01-27T01:40:03.685Z,13.16
2019-01-27T01:41:03.349Z,13.16
2019-01-27T01:42:03.165Z,9.95
2019-01-27T01:43:02.830Z,8.75
2019-01-27T01:44:02.771Z,12.28
2019-01-27T01:45:03.332Z,11.88
2019-01-27T01:46:02.947Z,11.88
2019-01-27T01:47:03.437Z,11.42
2019-01-27T01:48:03.222Z,11.42
2019-01-27T01:49:03.299Z,9.8
2019-01-27T01:50:03.127Z,9.8
2019-01-27T01:51:03.226Z,13.4
2019-01-27T01:52:02.946Z,13.99
2019-01-27T01:53:02.621Z,11.38
2019-01-27T01:54:03.312Z,9.22
2019-01-27T01:55:02.870Z,12.69
2019-01-27T01:56:02.041Z,10.78
2019-01-27T01:57:03.123Z,10.72
2019-01-27T01:58:02.005Z,13.28
2019-01-27T01:59:03.016Z,10.57
2019-01-27T02:00:03.095Z,13.85
2019-01-27T02:01:02.697Z,10.71
2019-01-27T02:02:03.307Z,10.71
2019-01-27T02:03:03.244Z,12.65
2019-01-27T02:04:03.750Z,10.54
2019-01-27T02:05:03.104Z,11.65
2019-01-27T02:06:03.388Z,12.26
2019-01-27T02:07:02.879Z,13.21
2019-01-27T02:08:02.741Z,10.61
2019-01-27T02:09:02.571Z,13.85
2019-01-27T02:10:02.860Z,13.05
2019-01-27T02:11:02.764Z,8.66
2019-01-27T02:12:03.429Z,8.66
2019-01-27T02:13:03.594Z,11.01
2019-01-27T02:14:02.724Z,11.01
2019-01-27T02:15:03.671Z,10.82
2019-01-27T02:16:03.470Z,10.56
2019-01-27T02:17:03.425Z,10.58
2019-01-27T02:18:02.273Z,10.51
2019-01-27T02:19:02.261Z,12.58
2019-01-27T02:20:03.145Z,11.01
2019-01-27T02:21:03.276Z,11.01
2019-01-27T02:22:03.307Z,10.1
2019-01-27T02:23:03.541Z,10.82
2019-01-27T02:24:03.215Z,10.82
2019-01-27T02:25:02.738Z,14.07
2019-01-27T02:26:02.743Z,14.07
2019-01-27T02:27:03.217Z,10.54
2019-01-27T02:28:03.299Z,13.99
2019-01-27T02:29:03.670Z,12.22
2019-01-27T02:30:03.255Z,12.22
2019-01-27T02:31:02.957Z,12.78
2019-01-27T02:32:02.876Z,12.78
2019-01-27T02:33:03.666Z,13.62
2019-01-27T02:34:03.276Z,9.33
2019-01-27T02:35:03.318Z,9.77
2019-01-27T02:36:02.737Z,10.02
2019-01-27T02:37:02.846Z,9.65
2019-01-27T02:38:03.320Z,9.65
2019-01-27T02:39:03.010Z,11.8
2019-01-27T02:40:02.462Z,12.98
2019-01-27T02:41:03.581Z,14.54
2019-01-27T02:42:03.524Z,9.05
2019-01-27T02:43:01.791Z,10.68
2019-01-27T02:44:03.653Z,11.54
2019-01-27T02:45:03.412Z,15.11
2019-01-27T02:46:03.163Z,9.62
2019-01-27T02:47:02.809Z,14.74
2019-01-27T02:48:03.015Z,11.88
2019-01-27T02:49:02.859Z,14.57
2019-01-27T02:50:03.077Z,14.57
2019-01-27T02:51:03.102Z,12.35
2019-01-27T02:52:03.187Z,10.56
2019-01-27T02:53:02.707Z,10.56
2019-01-27T02:54:03.657Z,15.59
2019-01-27T02:55:03.595Z,16.31
2019-01-27T02:56:03.307Z,16.31
2019-01-27T02:57:02.969Z,12.42
2019-01-27T02:58:03.519Z,12.84
2019-01-27T02:59:03.525Z,15.38
2019-01-27T03:00:03.558Z,15.38
2019-01-27T03:01:03.278Z,10.18
2019-01-27T03:02:03.445Z,13.82
2019-01-27T03:03:03.422Z,10.35
2019-01-27T03:04:02.844Z,11.95
2019-01-27T03:05:03.101Z,13.94
2019-01-27T03:06:02.817Z,13.94
2019-01-27T03:07:03.586Z,10
2019-01-27T03:08:01.902Z,12.32
2019-01-27T03:09:03.251Z,12.32
2019-01-27T03:10:02.962Z,12.32
2019-01-27T03:11:03.894Z,9.4
2019-01-27T03:12:02.933Z,9.4
2019-01-27T03:13:03.004Z,14.9
2019-01-27T03:14:03.414Z,14.9
2019-01-27T03:15:02.839Z,11.06
2019-01-27T03:16:03.065Z,13.09
2019-01-27T03:17:03.410Z,11.52
2019-01-27T03:18:03.108Z,12.49
2019-01-27T03:19:03.060Z,11.31
2019-01-27T03:20:03.647Z,11.91
2019-01-27T03:21:03.502Z,11.55
2019-01-27T03:22:03.331Z,12.21
2019-01-27T03:23:03.501Z,13.35
2019-01-27T03:24:03.204Z,13.35
2019-01-27T03:25:03.450Z,13.47
2019-01-27T03:26:03.063Z,10.66
2019-01-27T03:27:03.357Z,12.14
2019-01-27T03:28:03.229Z,12.14
2019-01-27T03:29:03.274Z,12.42
2019-01-27T03:30:02.602Z,11.92
2019-01-27T03:31:03.422Z,11.21
2019-01-27T03:32:02.885Z,12.18
2019-01-27T03:33:02.859Z,12.35
2019-01-27T03:34:03.583Z,11.63
2019-01-27T03:35:02.598Z,13.12
2019-01-27T03:36:02.409Z,11.84
2019-01-27T03:37:01.694Z,14.04
2019-01-27T03:38:02.864Z,11.44
2019-01-27T03:39:01.910Z,13.84
2019-01-27T03:40:03.391Z,12.87
2019-01-27T03:41:02.859Z,11.29
2019-01-27T03:42:03.212Z,11.29
2019-01-27T03:43:02.965Z,11.18
2019-01-27T03:44:03.396Z,12.86
2019-01-27T03:45:02.822Z,11.29
2019-01-27T03:46:03.363Z,11.29
2019-01-27T03:47:03.332Z,12.76
2019-01-27T03:48:03.088Z,12.76
2019-01-27T03:49:03.566Z,11.74
2019-01-27T03:50:03.388Z,9.89
2019-01-27T03:51:03.631Z,16.99
2019-01-27T03:52:03.113Z,16.99
2019-01-27T03:53:02.926Z,13.23
2019-01-27T03:54:02.808Z,10.91
2019-01-27T03:55:03.311Z,11.61
2019-01-27T03:56:03.167Z,14.08
2019-01-27T03:57:02.939Z,10.64
2019-01-27T03:58:03.143Z,12.25
2019-01-27T03:59:01.931Z,13.57
2019-01-27T04:00:02.933Z,13.57
2019-01-27T04:01:02.654Z,15.19
2019-01-27T04:02:03.573Z,15.19
2019-01-27T04:03:03.482Z,13.26
2019-01-27T04:04:02.584Z,12.92
2019-01-27T04:05:02.899Z,13.2
2019-01-27T04:06:02.947Z,12.72
2019-01-27T04:07:03.425Z,17.54
2019-01-27T04:08:02.939Z,12.25
2019-01-27T04:09:02.876Z,11.78
2019-01-27T04:10:02.736Z,11.78
2019-01-27T04:11:02.952Z,15.16
2019-01-27T04:12:03.778Z,15.16
2019-01-27T04:13:03.427Z,13.14
2019-01-27T04:14:03.061Z,13.11
2019-01-27T04:15:03.504Z,12.84
2019-01-27T04:16:03.102Z,15.22
2019-01-27T04:17:03.080Z,11.76
2019-01-27T04:18:03.508Z,11.66
2019-01-27T04:19:03.465Z,11.77
2019-01-27T04:20:03.583Z,11.77
2019-01-27T04:21:01.688Z,11.38
2019-01-27T04:22:01.610Z,13.35
2019-01-27T04:23:02.979Z,10.9
2019-01-27T04:24:03.056Z,8.85
2019-01-27T04:25:02.787Z,8.94
2019-01-27T04:26:03.362Z,11.59
2019-01-27T04:27:03.189Z,12.28
2019-01-27T04:28:03.580Z,12.28
2019-01-27T04:29:03.070Z,11.24
2019-01-27T04:30:03.438Z,11.66
2019-01-27T04:31:03.214Z,10.91
2019-01-27T04:32:03.058Z,10.37
2019-01-27T04:33:03.576Z,10.7
2019-01-27T04:34:03.345Z,10.7
2019-01-27T04:35:03.092Z,11.6
2019-01-27T04:36:02.994Z,11.6
2019-01-27T04:37:02.891Z,10.81
2019-01-27T04:38:03.457Z,9.27
2019-01-27T04:39:03.235Z,10.75
2019-01-27T04:40:03.280Z,10.75
2019-01-27T04:41:02.751Z,9.18
2019-01-27T04:42:03.248Z,9.28
2019-01-27T04:43:02.899Z,9.98
2019-01-27T04:44:02.141Z,9.3
2019-01-27T04:45:03.425Z,8.68
2019-01-27T04:46:01.717Z,9.14
2019-01-27T04:47:02.976Z,9.14
2019-01-27T04:48:02.747Z,9.86
2019-01-27T04:49:03.341Z,7.98
2019-01-27T04:50:03.089Z,7.98
2019-01-27T04:51:02.880Z,12.08
2019-01-27T04:52:03.344Z,12.08
2019-01-27T04:53:03.523Z,10.64
2019-01-27T04:54:02.827Z,10.64
2019-01-27T04:55:03.152Z,13.17
2019-01-27T04:56:03.090Z,10.74
2019-01-27T04:57:03.338Z,12.9
2019-01-27T04:58:03.370Z,12.9
2019-01-27T04:59:03.480Z,9.04
2019-01-27T05:00:03.356Z,9.04
2019-01-27T05:01:03.176Z,10.68
2019-01-27T05:02:03.158Z,10.68
2019-01-27T05:03:03.154Z,11.35
2019-01-27T05:04:03.081Z,11.35
2019-01-27T05:05:03.587Z,11.04
2019-01-27T05:06:03.206Z,11.04
2019-01-27T05:07:03.351Z,13.71
2019-01-27T05:08:02.922Z,15.89
2019-01-27T05:09:03.024Z,11.05
2019-01-27T05:10:02.719Z,10.75
2019-01-27T05:11:03.340Z,10.77
2019-01-27T05:12:03.524Z,10.77
2019-01-27T05:13:02.842Z,10.09
2019-01-27T05:14:03.197Z,13.75
2019-01-27T05:15:03.447Z,8.41
2019-01-27T05:16:03.101Z,8.82
2019-01-27T05:17:03.299Z,12.14
2019-01-27T05:18:02.857Z,9.45
2019-01-27T05:19:03.439Z,8.89
2019-01-27T05:20:03.789Z,9.65
2019-01-27T05:21:03.374Z,12.95
2019-01-27T05:22:03.289Z,12.95
2019-01-27T05:23:02.951Z,8.44
2019-01-27T05:24:02.689Z,8.57
2019-01-27T05:25:02.974Z,7.14
2019-01-27T05:26:03.737Z,7.14
2019-01-27T05:27:02.700Z,8.15
2019-01-27T05:28:03.673Z,8.15
2019-01-27T05:29:03.475Z,6.88
2019-01-27T05:30:03.169Z,8.01
2019-01-27T05:31:02.801Z,5.4
2019-01-27T05:32:02.653Z,5.99
2019-01-27T05:33:03.267Z,5.99
2019-01-27T05:34:03.451Z,5.74
2019-01-27T05:35:02.985Z,6.82
2019-01-27T05:36:03.593Z,6.82
2019-01-27T05:37:03.469Z,6.99
2019-01-27T05:38:02.869Z,6.11
2019-01-27T05:39:03.044Z,6.82
2019-01-27T05:40:02.490Z,6.82
2019-01-27T05:41:03.466Z,5.21
2019-01-27T05:42:03.226Z,5.21
2019-01-27T05:43:03.407Z,7.59
2019-01-27T05:44:03.272Z,7.59
2019-01-27T05:45:03.164Z,6.51
2019-01-27T05:46:02.987Z,6.51
2019-01-27T05:47:03.544Z,4.74
2019-01-27T05:48:02.610Z,4.74
2019-01-27T05:49:03.417Z,7.38
2019-01-27T05:50:03.116Z,7.38
2019-01-27T05:51:03.425Z,6.2
2019-01-27T05:52:03.264Z,6.2
2019-01-27T05:53:03.122Z,5.62
2019-01-27T05:54:02.483Z,5.69
2019-01-27T05:55:02.965Z,6.42
2019-01-27T05:56:03.207Z,8.11
2019-01-27T05:57:03.029Z,8.11
2019-01-27T05:58:02.751Z,6.46
2019-01-27T05:59:03.563Z,6.46
2019-01-27T06:00:02.941Z,4.56
2019-01-27T06:01:03.192Z,9.56
2019-01-27T06:02:02.580Z,5.67
2019-01-27T06:03:03.383Z,5.67
2019-01-27T06:04:02.799Z,6.86
2019-01-27T06:05:02.806Z,6.86
2019-01-27T06:06:03.394Z,6.1
2019-01-27T06:07:03.253Z,6.1
2019-01-27T06:08:02.566Z,9.58
2019-01-27T06:09:03.601Z,9.58
2019-01-27T06:10:03.245Z,11.05
2019-01-27T06:11:02.725Z,19.29
2019-01-27T06:12:02.979Z,14.75
2019-01-27T06:13:03.285Z,15.28
2019-01-27T06:14:02.145Z,13.19
2019-01-27T06:15:02.905Z,10.21
2019-01-27T06:16:02.040Z,46.79
2019-01-27T06:17:03.249Z,35.37
2019-01-27T06:18:03.217Z,18.14
2019-01-27T06:19:03.249Z,10.72
2019-01-27T06:20:03.170Z,8.98
2019-01-27T06:21:03.417Z,7.49
2019-01-27T06:22:02.919Z,5.65
2019-01-27T06:23:03.364Z,5.12
2019-01-27T06:24:02.969Z,5.12
2019-01-27T06:25:03.584Z,10.06
2019-01-27T06:26:03.222Z,5.63
2019-01-27T06:27:03.002Z,4.69
2019-01-27T06:28:03.686Z,4.69
2019-01-27T06:29:02.576Z,4.98
2019-01-27T06:30:03.893Z,4.98
2019-01-27T06:31:03.552Z,6.16
2019-01-27T06:32:03.294Z,5.92
2019-01-27T06:33:03.295Z,5.19
2019-01-27T06:34:03.080Z,5.91
2019-01-27T06:35:02.901Z,6.17
2019-01-27T06:36:02.847Z,6.17
2019-01-27T06:37:03.065Z,5.65
2019-01-27T06:38:01.996Z,8.71
2019-01-27T06:39:02.881Z,4.71
2019-01-27T06:40:03.567Z,5.66
2019-01-27T06:41:03.080Z,5.83
2019-01-27T06:42:02.929Z,5.78
2019-01-27T06:43:02.679Z,5.78
2019-01-27T06:44:02.788Z,4.56
2019-01-27T06:45:02.815Z,5.21
2019-01-27T06:46:03.034Z,7.2
2019-01-27T06:47:03.440Z,5.47
2019-01-27T06:48:03.274Z,5.47
2019-01-27T06:49:03.317Z,6.74
2019-01-27T06:50:03.266Z,8.95
2019-01-27T06:51:02.797Z,5.96
2019-01-27T06:52:03.456Z,5.96
2019-01-27T06:53:03.385Z,6.41
2019-01-27T06:54:03.123Z,6.41
2019-01-27T06:55:03.579Z,7.39
2019-01-27T06:56:03.536Z,6.03
2019-01-27T06:57:02.736Z,4.96
2019-01-27T06:58:02.939Z,5.66
2019-01-27T06:59:02.294Z,5.31
2019-01-27T07:00:02.784Z,5.59
2019-01-27T07:01:03.665Z,5.59
2019-01-27T07:02:03.116Z,5.6
2019-01-27T07:03:03.183Z,4.47
2019-01-27T07:04:03.548Z,6.47
2019-01-27T07:05:02.893Z,6.25
2019-01-27T07:06:03.290Z,6.25
2019-01-27T07:07:02.864Z,6.63
2019-01-27T07:08:02.758Z,4.9
2019-01-27T07:09:03.288Z,6.61
2019-01-27T07:10:02.603Z,4.55
2019-01-27T07:11:03.806Z,5.23
2019-01-27T07:12:03.254Z,5.21
2019-01-27T07:13:02.965Z,5.64
2019-01-27T07:14:02.928Z,5.64
2019-01-27T07:15:02.995Z,4.59
2019-01-27T07:16:02.875Z,4.59
2019-01-27T07:17:03.913Z,6.22
2019-01-27T07:18:03.295Z,6.22
2019-01-27T07:19:03.074Z,7.77
2019-01-27T07:20:03.190Z,4.95
2019-01-27T07:21:03.013Z,4.79
2019-01-27T07:22:03.539Z,5.26
2019-01-27T07:23:02.935Z,6.84
2019-01-27T07:24:02.363Z,6.84
2019-01-27T07:25:03.683Z,5.44
2019-01-27T07:26:03.358Z,5.44
2019-01-27T07:27:03.239Z,5.32
2019-01-27T07:28:03.289Z,8.65
2019-01-27T07:29:03.396Z,6.11
2019-01-27T07:30:03.380Z,6.11
2019-01-27T07:31:03.045Z,7.84
2019-01-27T07:32:03.820Z,6.09
2019-01-27T07:33:02.756Z,6.85
2019-01-27T07:34:03.445Z,6.85
2019-01-27T07:35:03.392Z,6.21
2019-01-27T07:36:03.068Z,6.21
2019-01-27T07:37:02.665Z,7.19
2019-01-27T07:38:03.671Z,5.43
2019-01-27T07:39:03.167Z,6.19
2019-01-27T07:40:03.377Z,6.19
2019-01-27T07:41:02.666Z,14.17
2019-01-27T07:42:03.369Z,14.17
2019-01-27T07:43:03.174Z,13.81
2019-01-27T07:44:02.935Z,13.81
2019-01-27T07:45:03.696Z,10.52
2019-01-27T07:46:02.013Z,10.58
2019-01-27T07:47:01.998Z,8.34
2019-01-27T07:48:03.673Z,9.59
2019-01-27T07:49:03.532Z,7.58
2019-01-27T07:50:03.664Z,7.28
2019-01-27T07:51:02.576Z,7.26
2019-01-27T07:52:02.739Z,6.11
2019-01-27T07:53:03.141Z,6.21
2019-01-27T07:54:02.806Z,6.21
2019-01-27T07:55:03.562Z,7.33
2019-01-27T07:56:03.071Z,7.33
2019-01-27T07:57:03.178Z,6.25
2019-01-27T07:58:02.843Z,5.86
2019-01-27T07:59:02.812Z,7.19
2019-01-27T08:00:03.458Z,7.19
2019-01-27T08:01:03.281Z,4.1
2019-01-27T08:02:03.001Z,7.24
2019-01-27T08:03:03.528Z,6.26
2019-01-27T08:04:02.504Z,6.26
2019-01-27T08:05:02.821Z,6.4
2019-01-27T08:06:02.737Z,7.28
2019-01-27T08:07:03.137Z,7.69
2019-01-27T08:08:02.966Z,7.69
2019-01-27T08:09:03.254Z,10.98
2019-01-27T08:10:02.204Z,10.98
2019-01-27T08:11:01.701Z,8.65
2019-01-27T08:12:02.466Z,8.65
2019-01-27T08:13:02.852Z,8.61
2019-01-27T08:14:02.898Z,8.09
2019-01-27T08:15:02.786Z,11.35
2019-01-27T08:16:03.437Z,8.84
2019-01-27T08:17:03.702Z,8.07
2019-01-27T08:18:03.463Z,8.07
2019-01-27T08:19:03.647Z,8.79
2019-01-27T08:20:03.332Z,8.79
2019-01-27T08:21:02.819Z,12.44
2019-01-27T08:22:03.342Z,12.44
2019-01-27T08:23:03.659Z,6.39
2019-01-27T08:24:03.338Z,7.78
2019-01-27T08:25:02.981Z,7.78
2019-01-27T08:26:03.569Z,9.13
2019-01-27T08:27:03.395Z,18.14
2019-01-27T08:28:02.793Z,12.41
2019-01-27T08:29:02.750Z,12.41
2019-01-27T08:30:03.340Z,9.74
2019-01-27T08:31:02.716Z,9.74
2019-01-27T08:32:03.488Z,7.06
2019-01-27T08:33:03.247Z,10.03
2019-01-27T08:34:02.846Z,10.39
2019-01-27T08:35:02.458Z,9.1
2019-01-27T08:36:02.127Z,13.08
2019-01-27T08:37:02.718Z,14.93
2019-01-27T08:38:03.225Z,9.56
2019-01-27T08:39:02.828Z,9.47
2019-01-27T08:40:03.550Z,15.5
2019-01-27T08:41:03.034Z,10.06
2019-01-27T08:42:02.625Z,6.89
2019-01-27T08:43:03.377Z,7.79
2019-01-27T08:44:03.417Z,7.21
2019-01-27T08:45:03.505Z,8.35
2019-01-27T08:46:03.483Z,14.2
2019-01-27T08:47:03.070Z,10.44
2019-01-27T08:48:03.149Z,10.7
2019-01-27T08:49:03.679Z,10.7
2019-01-27T08:50:03.663Z,9.68
2019-01-27T08:51:03.501Z,9.68
2019-01-27T08:52:03.221Z,8.09
2019-01-27T08:53:02.893Z,8.09
2019-01-27T08:54:02.662Z,9.55
2019-01-27T08:55:03.687Z,12.58
2019-01-27T08:56:02.629Z,9.45
2019-01-27T08:57:03.182Z,9.45
2019-01-27T08:58:03.272Z,9.82
2019-01-27T08:59:03.022Z,8.43
2019-01-27T09:00:03.485Z,11.61
2019-01-27T09:01:02.371Z,11.61
2019-01-27T09:02:03.377Z,11.59
2019-01-27T09:03:03.482Z,11.59
2019-01-27T09:04:02.779Z,8.59
2019-01-27T09:05:03.150Z,8.69
2019-01-27T09:06:03.443Z,11.9
2019-01-27T09:07:03.157Z,11.9
2019-01-27T09:08:02.709Z,31.51
2019-01-27T09:09:03.474Z,31.48
2019-01-27T09:10:03.000Z,31.48
2019-01-27T09:11:03.017Z,23.08
2019-01-27T09:12:02.933Z,23.05
2019-01-27T09:13:02.620Z,23.05
2019-01-27T09:14:03.372Z,12.15
2019-01-27T09:15:03.097Z,13.19
2019-01-27T09:16:03.273Z,7.84
2019-01-27T09:17:03.529Z,7.84
2019-01-27T09:18:03.523Z,6.33
2019-01-27T09:19:03.231Z,6.33
2019-01-27T09:20:03.101Z,6.9
2019-01-27T09:21:02.149Z,6.18
2019-01-27T09:22:02.841Z,7.84
2019-01-27T09:23:03.696Z,6.87
2019-01-27T09:24:03.341Z,8.59
2019-01-27T09:25:03.432Z,11.13
2019-01-27T09:26:02.973Z,6.65
2019-01-27T09:27:02.835Z,6.65
2019-01-27T09:28:03.402Z,6.13
2019-01-27T09:29:03.641Z,6.71
2019-01-27T09:30:03.241Z,6.37
2019-01-27T09:31:02.613Z,6.37
2019-01-27T09:32:03.334Z,5.74
2019-01-27T09:33:02.760Z,5.74
2019-01-27T09:34:03.665Z,5.71
2019-01-27T09:36:03.195Z,5.02
2019-01-27T09:37:02.835Z,5.02
2019-01-27T09:38:03.168Z,5.94
2019-01-27T09:39:03.000Z,5.92
2019-01-27T09:40:02.893Z,6.02
2019-01-27T09:41:03.540Z,7.65
2019-01-27T09:42:03.501Z,5.79
2019-01-27T09:43:03.181Z,6.94
2019-01-27T09:44:02.978Z,4.51
2019-01-27T09:45:02.865Z,6.87
2019-01-27T09:46:05.336Z,6.66
2019-01-27T09:47:03.148Z,5.72
2019-01-27T09:48:01.884Z,5.54
2019-01-27T09:49:03.210Z,5.55
2019-01-27T09:50:02.972Z,9.88
2019-01-27T09:51:03.557Z,12.49
2019-01-27T09:52:03.020Z,12.18
2019-01-27T09:53:03.403Z,17.82
2019-01-27T09:54:02.975Z,30.18
2019-01-27T09:55:03.486Z,32.58
2019-01-27T09:56:02.857Z,21.38
2019-01-27T09:57:03.491Z,22.43
2019-01-27T09:58:03.176Z,22.43
2019-01-27T09:59:03.282Z,13.22
2019-01-27T10:00:03.432Z,10.24
2019-01-27T10:01:02.743Z,14.68
2019-01-27T10:02:03.676Z,14.68
2019-01-27T10:03:03.689Z,4.85
2019-01-27T10:04:03.623Z,4.85
2019-01-27T10:05:03.383Z,5.94
2019-01-27T10:06:02.777Z,7.04
2019-01-27T10:07:03.119Z,4.51
2019-01-27T10:08:03.157Z,5.64
2019-01-27T10:09:02.353Z,6.94
2019-01-27T10:10:01.852Z,6.81
2019-01-27T10:11:03.404Z,8.69
2019-01-27T10:12:03.181Z,8.69
2019-01-27T10:13:02.970Z,4.71
2019-01-27T10:14:03.523Z,3.55
2019-01-27T10:15:02.945Z,6.76
2019-01-27T10:16:03.597Z,6.76
2019-01-27T10:17:03.087Z,2.7
2019-01-27T10:18:02.947Z,2.56
2019-01-27T10:19:02.870Z,5.64
2019-01-27T10:20:03.414Z,5.64
2019-01-27T10:21:02.955Z,3.34
2019-01-27T10:22:03.482Z,3.34
2019-01-27T10:23:03.315Z,3.19
2019-01-27T10:24:02.617Z,7.25
2019-01-27T10:25:03.044Z,4.99
2019-01-27T10:26:02.798Z,4.99
2019-01-27T10:27:02.855Z,3.42
2019-01-27T10:28:03.554Z,3.42
2019-01-27T10:29:03.526Z,4.92
2019-01-27T10:30:02.927Z,4.03
2019-01-27T10:31:03.134Z,4.49
2019-01-27T10:32:02.576Z,4.05
2019-01-27T10:33:01.658Z,4.2
2019-01-27T10:34:03.318Z,4.24
2019-01-27T10:35:03.513Z,6.27
2019-01-27T10:36:03.246Z,6.27
2019-01-27T10:37:03.130Z,4.81
2019-01-27T10:38:03.528Z,4.36
2019-01-27T10:39:03.416Z,4.53
2019-01-27T10:40:09.074Z,4.53
2019-01-27T10:41:03.215Z,3.03
2019-01-27T10:42:03.358Z,8.13
2019-01-27T10:43:03.164Z,4.35
2019-01-27T10:44:02.958Z,4.35
2019-01-27T10:45:03.151Z,5.48
2019-01-27T10:46:03.429Z,7.05
2019-01-27T10:47:03.282Z,7.05
2019-01-27T10:48:02.870Z,4.16
2019-01-27T10:49:03.255Z,7.18
2019-01-27T10:50:03.322Z,7.18
2019-01-27T10:51:03.248Z,6.15
2019-01-27T10:52:02.989Z,6.15
2019-01-27T10:53:02.989Z,8.3
2019-01-27T10:54:03.406Z,4.78
2019-01-27T10:55:03.348Z,4.89
2019-01-27T10:56:02.533Z,5.1
2019-01-27T10:57:02.744Z,3.68
2019-01-27T10:58:03.043Z,4.89
2019-01-27T10:59:03.722Z,4.18
2019-01-27T11:00:03.464Z,6.66
2019-01-27T11:01:02.545Z,5.98
2019-01-27T11:02:03.217Z,5.59
2019-01-27T11:03:02.975Z,4.16
2019-01-27T11:04:03.482Z,4.16
2019-01-27T11:05:03.394Z,4.31
2019-01-27T11:06:03.069Z,3.82
2019-01-27T11:07:03.440Z,4.56
2019-01-27T11:08:03.272Z,4.56
2019-01-27T11:09:03.727Z,4.54
2019-01-27T11:10:03.523Z,4.54
2019-01-27T11:11:03.376Z,4.94
2019-01-27T11:12:02.885Z,5.89
2019-01-27T11:13:03.571Z,5.29
2019-01-27T11:14:03.332Z,5.29
2019-01-27T11:15:03.096Z,7.05
2019-01-27T11:16:03.351Z,5.56
2019-01-27T11:17:03.363Z,3.46
2019-01-27T11:18:02.684Z,5.89
2019-01-27T11:19:03.266Z,3.85
2019-01-27T11:20:03.628Z,6.22
2019-01-27T11:21:03.039Z,4.53
2019-01-27T11:22:03.420Z,3.89
2019-01-27T11:23:03.184Z,5.55
2019-01-27T11:24:03.623Z,4.08
2019-01-27T11:25:02.959Z,2.38
2019-01-27T11:26:03.274Z,2.81
2019-01-27T11:27:03.316Z,2.49
2019-01-27T11:28:02.925Z,2.49
2019-01-27T11:29:03.506Z,2.56
2019-01-27T11:30:03.305Z,2.56
2019-01-27T11:31:02.813Z,3.98
2019-01-27T11:32:03.779Z,3.98
2019-01-27T11:33:02.695Z,3.14
2019-01-27T11:34:03.528Z,3.14
2019-01-27T11:35:03.366Z,3.56
2019-01-27T11:36:03.325Z,3.84
2019-01-27T11:37:03.555Z,3.2
2019-01-27T11:38:03.045Z,3.2
2019-01-27T11:39:03.167Z,4.51
2019-01-27T11:40:03.297Z,3.53
2019-01-27T11:41:02.799Z,3.53
2019-01-27T11:42:03.368Z,3.43
2019-01-27T11:43:03.457Z,5.55
2019-01-27T11:44:02.979Z,3.2
2019-01-27T11:45:03.482Z,4.88
2019-01-27T11:46:03.349Z,4.88
2019-01-27T11:47:03.545Z,2.96
2019-01-27T11:48:03.054Z,3.44
2019-01-27T11:49:03.612Z,4.18
2019-01-27T11:50:03.460Z,4.18
2019-01-27T11:51:02.973Z,4.74
2019-01-27T11:52:03.693Z,4.74
2019-01-27T11:53:03.499Z,3.68
2019-01-27T11:54:03.350Z,3.68
2019-01-27T11:55:03.334Z,4.78
2019-01-27T11:56:03.625Z,4.78
2019-01-27T11:57:03.017Z,4.3
2019-01-27T11:58:02.850Z,4.3
2019-01-27T11:59:03.405Z,3.38
2019-01-27T12:00:03.041Z,4.92
2019-01-27T12:01:02.840Z,8.13
2019-01-27T12:02:03.169Z,5.31
2019-01-27T12:03:03.072Z,4.45
2019-01-27T12:04:03.181Z,4.45
2019-01-27T12:05:06.227Z,5.39
2019-01-27T12:06:04.474Z,3.56
2019-01-27T12:07:07.468Z,3.56
2019-01-27T12:08:08.824Z,2.36
2019-01-27T12:09:07.509Z,2.68
2019-01-27T12:10:03.196Z,3.49
2019-01-27T12:11:03.009Z,4.04
2019-01-27T12:12:02.779Z,4.04
2019-01-27T12:13:02.742Z,2.48
2019-01-27T12:14:03.302Z,2.95
2019-01-27T12:15:02.980Z,2.41
2019-01-27T12:16:03.327Z,3.04
2019-01-27T12:17:03.049Z,3.04
2019-01-27T12:18:03.633Z,3.48
2019-01-27T12:19:02.953Z,2.91
2019-01-27T12:20:03.578Z,2.35
2019-01-27T12:21:03.022Z,2.35
2019-01-27T12:22:02.922Z,4
2019-01-27T12:23:03.267Z,2.99
2019-01-27T12:24:03.076Z,3.08
2019-01-27T12:25:02.735Z,6.65
2019-01-27T12:26:03.176Z,2.13
2019-01-27T12:27:02.670Z,10.08
2019-01-27T12:28:03.292Z,10.08
2019-01-27T12:29:03.708Z,4.28
2019-01-27T12:30:03.282Z,3.21
2019-01-27T12:31:03.613Z,1.77
2019-01-27T12:32:03.017Z,2.26
2019-01-27T12:33:03.090Z,2.71
2019-01-27T12:34:02.983Z,3.54
2019-01-27T12:35:03.402Z,2.67
2019-01-27T12:36:03.076Z,3.66
2019-01-27T12:37:02.808Z,3.66
2019-01-27T12:38:03.490Z,2.8
2019-01-27T12:39:02.944Z,3.79
2019-01-27T12:40:03.285Z,2.31
2019-01-27T12:41:03.166Z,2.31
2019-01-27T12:42:03.185Z,4.18
2019-01-27T12:43:02.724Z,4.18
2019-01-27T12:44:03.479Z,3.75
2019-01-27T12:45:03.557Z,3.06
2019-01-27T12:46:02.787Z,2.41
2019-01-27T12:47:03.492Z,2.41
2019-01-27T12:48:02.941Z,5.69
2019-01-27T12:49:02.753Z,6.41
2019-01-27T12:50:03.140Z,4.66
2019-01-27T12:51:02.732Z,4.66
2019-01-27T12:52:03.019Z,2.7
2019-01-27T12:53:02.901Z,2.7
2019-01-27T12:54:02.655Z,2.88
2019-01-27T12:55:03.248Z,2.88
2019-01-27T12:56:01.777Z,3.03
2019-01-27T12:57:03.496Z,3.88
2019-01-27T12:58:03.135Z,5.6
2019-01-27T12:59:02.695Z,5.52
2019-01-27T13:00:03.186Z,2.88
2019-01-27T13:01:03.604Z,4.17
2019-01-27T13:02:03.403Z,3.13
2019-01-27T13:03:02.789Z,3.74
2019-01-27T13:04:03.101Z,5.02
2019-01-27T13:05:02.850Z,5.02
2019-01-27T13:06:03.224Z,7.4
2019-01-27T13:07:02.790Z,7.4
2019-01-27T13:08:02.985Z,8.68
2019-01-27T13:09:03.762Z,8.68
2019-01-27T13:10:03.682Z,6.49